Szekesfehervar, Hungary
Current Conditions -  °F | °C
As of 7:30 PM on Thursday 27 Nov 2014 (Local Time) from LHBP Reporting Station
Broken Clouds Broken Clouds  
Wind Chill: 25°   Ceiling: 600
Heat Index: 34°   Visibility: 5mi
Dew Point: 30°   Wind: 12mph
Humidity: 87%   Direction: 90°E
Pressure: 30.12"   Gusts: NA
Location:  47.2°N, 18.41°E
Report Text: LHBP 271730Z 09010KT 8000 BKN006 01/M01 Q1020 NOSIG
Loading
Personal Weather Stations






























Interactive Weather Map New forecast layout! Learn more

10-Day Weather Forecast

Advertisements
Track Severe Weather on mobile